sensor_id;sensor_type;location;lat;lon;timestamp;P1;durP1;ratioP1;P2;durP2;ratioP2
44646;SDS011;56315;-33.902;151.160;2022-09-03T00:00:20;10.63;;;1.45;;
44646;SDS011;56315;-33.902;151.160;2022-09-03T00:06:07;13.10;;;2.85;;
44646;SDS011;56315;-33.902;151.160;2022-09-03T00:17:37;14.00;;;2.33;;
44646;SDS011;56315;-33.902;151.160;2022-09-03T00:22:49;18.30;;;2.67;;
44646;SDS011;56315;-33.902;151.160;2022-09-03T00:28:21;18.88;;;2.75;;
44646;SDS011;56315;-33.902;151.160;2022-09-03T00:33:55;17.08;;;3.17;;
44646;SDS011;56315;-33.902;151.160;2022-09-03T00:36:45;20.63;;;4.40;;
44646;SDS011;56315;-33.902;151.160;2022-09-03T00:39:13;21.92;;;3.83;;
44646;SDS011;56315;-33.902;151.160;2022-09-03T00:41:54;25.40;;;3.67;;
44646;SDS011;56315;-33.902;151.160;2022-09-03T00:47:09;19.90;;;3.03;;
44646;SDS011;56315;-33.902;151.160;2022-09-03T01:00:58;20.30;;;3.40;;
44646;SDS011;56315;-33.902;151.160;2022-09-03T01:06:37;25.98;;;5.57;;
44646;SDS011;56315;-33.902;151.160;2022-09-03T01:09:17;27.98;;;3.90;;
44646;SDS011;56315;-33.902;151.160;2022-09-03T01:12:14;29.30;;;3.47;;
44646;SDS011;56315;-33.902;151.160;2022-09-03T01:15:12;23.60;;;3.67;;
44646;SDS011;56315;-33.902;151.160;2022-09-03T01:24:12;20.40;;;2.78;;
44646;SDS011;56315;-33.902;151.160;2022-09-03T01:27:16;22.70;;;2.88;;
44646;SDS011;56315;-33.902;151.160;2022-09-03T01:35:40;19.75;;;3.45;;
44646;SDS011;56315;-33.902;151.160;2022-09-03T01:38:31;24.10;;;3.33;;
44646;SDS011;56315;-33.902;151.160;2022-09-03T01:44:48;17.15;;;3.10;;
44646;SDS011;56315;-33.902;151.160;2022-09-03T01:47:07;27.30;;;3.85;;
44646;SDS011;56315;-33.902;151.160;2022-09-03T01:49:47;23.40;;;3.85;;
44646;SDS011;56315;-33.902;151.160;2022-09-03T01:52:32;25.63;;;2.75;;
44646;SDS011;56315;-33.902;151.160;2022-09-03T01:55:29;19.98;;;3.00;;
44646;SDS011;56315;-33.902;151.160;2022-09-03T01:58:05;20.70;;;3.30;;
44646;SDS011;56315;-33.902;151.160;2022-09-03T02:00:47;18.05;;;2.42;;
44646;SDS011;56315;-33.902;151.160;2022-09-03T02:03:21;26.40;;;3.67;;
44646;SDS011;56315;-33.902;151.160;2022-09-03T02:05:50;25.25;;;3.00;;
44646;SDS011;56315;-33.902;151.160;2022-09-03T02:08:17;26.30;;;3.17;;
44646;SDS011;56315;-33.902;151.160;2022-09-03T02:15:45;16.35;;;2.42;;
44646;SDS011;56315;-33.902;151.160;2022-09-03T02:18:16;16.77;;;2.33;;
44646;SDS011;56315;-33.902;151.160;2022-09-03T02:20:46;24.35;;;2.92;;
44646;SDS011;56315;-33.902;151.160;2022-09-03T02:23:15;19.75;;;2.67;;
44646;SDS011;56315;-33.902;151.160;2022-09-03T02:25:44;20.10;;;2.60;;
44646;SDS011;56315;-33.902;151.160;2022-09-03T02:28:16;13.30;;;2.83;;
44646;SDS011;56315;-33.902;151.160;2022-09-03T02:30:44;19.50;;;3.25;;
44646;SDS011;56315;-33.902;151.160;2022-09-03T02:33:13;13.07;;;2.92;;
44646;SDS011;56315;-33.902;151.160;2022-09-03T02:35:41;18.85;;;2.83;;
44646;SDS011;56315;-33.902;151.160;2022-09-03T02:38:19;17.15;;;3.58;;
44646;SDS011;56315;-33.902;151.160;2022-09-03T02:40:50;20.88;;;2.83;;
44646;SDS011;56315;-33.902;151.160;2022-09-03T02:43:22;14.25;;;2.33;;
44646;SDS011;56315;-33.902;151.160;2022-09-03T02:45:56;12.20;;;1.90;;
44646;SDS011;56315;-33.902;151.160;2022-09-03T02:48:27;13.25;;;2.25;;
44646;SDS011;56315;-33.902;151.160;2022-09-03T02:50:55;10.77;;;2.70;;
44646;SDS011;56315;-33.902;151.160;2022-09-03T02:53:22;10.80;;;2.13;;
44646;SDS011;56315;-33.902;151.160;2022-09-03T02:55:50;8.95;;;1.90;;
44646;SDS011;56315;-33.902;151.160;2022-09-03T02:58:18;12.02;;;2.20;;
44646;SDS011;56315;-33.902;151.160;2022-09-03T03:00:45;10.10;;;2.15;;
44646;SDS011;56315;-33.902;151.160;2022-09-03T03:03:13;10.57;;;2.22;;
44646;SDS011;56315;-33.902;151.160;2022-09-03T03:05:42;9.05;;;2.13;;
44646;SDS011;56315;-33.902;151.160;2022-09-03T03:08:13;11.57;;;2.00;;
44646;SDS011;56315;-33.902;151.160;2022-09-03T03:10:46;12.23;;;2.17;;
44646;SDS011;56315;-33.902;151.160;2022-09-03T03:13:14;13.57;;;1.95;;
44646;SDS011;56315;-33.902;151.160;2022-09-03T03:15:41;9.45;;;1.80;;
44646;SDS011;56315;-33.902;151.160;2022-09-03T03:18:09;12.23;;;2.30;;
44646;SDS011;56315;-33.902;151.160;2022-09-03T03:20:38;12.30;;;2.00;;
44646;SDS011;56315;-33.902;151.160;2022-09-03T03:23:07;11.05;;;1.92;;
44646;SDS011;56315;-33.902;151.160;2022-09-03T03:25:35;12.43;;;1.40;;
44646;SDS011;56315;-33.902;151.160;2022-09-03T03:28:04;9.77;;;2.08;;
44646;SDS011;56315;-33.902;151.160;2022-09-03T03:30:32;7.95;;;1.50;;
44646;SDS011;56315;-33.902;151.160;2022-09-03T03:33:05;13.32;;;2.17;;
44646;SDS011;56315;-33.902;151.160;2022-09-03T03:35:32;14.98;;;2.72;;
44646;SDS011;56315;-33.902;151.160;2022-09-03T03:38:00;9.38;;;1.55;;
44646;SDS011;56315;-33.902;151.160;2022-09-03T03:40:28;12.65;;;2.88;;
44646;SDS011;56315;-33.902;151.160;2022-09-03T03:42:56;17.42;;;2.45;;
44646;SDS011;56315;-33.902;151.160;2022-09-03T03:45:24;13.05;;;2.35;;
44646;SDS011;56315;-33.902;151.160;2022-09-03T03:47:51;16.70;;;2.35;;
44646;SDS011;56315;-33.902;151.160;2022-09-03T03:50:26;14.30;;;2.67;;
44646;SDS011;56315;-33.902;151.160;2022-09-03T03:52:53;15.63;;;2.80;;
44646;SDS011;56315;-33.902;151.160;2022-09-03T03:55:25;10.10;;;2.08;;
44646;SDS011;56315;-33.902;151.160;2022-09-03T03:57:52;15.23;;;2.65;;
44646;SDS011;56315;-33.902;151.160;2022-09-03T04:00:19;15.82;;;2.80;;
44646;SDS011;56315;-33.902;151.160;2022-09-03T04:02:47;18.38;;;3.30;;
44646;SDS011;56315;-33.902;151.160;2022-09-03T04:05:14;15.23;;;3.05;;
44646;SDS011;56315;-33.902;151.160;2022-09-03T04:07:41;20.13;;;3.55;;
44646;SDS011;56315;-33.902;151.160;2022-09-03T04:10:09;11.45;;;1.70;;
44646;SDS011;56315;-33.902;151.160;2022-09-03T04:12:36;11.82;;;1.83;;
44646;SDS011;56315;-33.902;151.160;2022-09-03T04:15:04;16.20;;;2.50;;
44646;SDS011;56315;-33.902;151.160;2022-09-03T04:17:31;15.88;;;2.63;;
44646;SDS011;56315;-33.902;151.160;2022-09-03T04:19:59;12.65;;;2.25;;
44646;SDS011;56315;-33.902;151.160;2022-09-03T04:22:27;11.27;;;2.45;;
44646;SDS011;56315;-33.902;151.160;2022-09-03T04:24:54;13.95;;;2.30;;
44646;SDS011;56315;-33.902;151.160;2022-09-03T04:27:21;14.27;;;2.72;;
44646;SDS011;56315;-33.902;151.160;2022-09-03T04:29:49;15.20;;;2.50;;
44646;SDS011;56315;-33.902;151.160;2022-09-03T04:32:16;15.38;;;3.00;;
44646;SDS011;56315;-33.902;151.160;2022-09-03T04:35:01;15.68;;;2.97;;
44646;SDS011;56315;-33.902;151.160;2022-09-03T04:37:29;22.80;;;4.10;;
44646;SDS011;56315;-33.902;151.160;2022-09-03T04:39:57;17.33;;;3.53;;
44646;SDS011;56315;-33.902;151.160;2022-09-03T04:42:25;17.83;;;3.72;;
44646;SDS011;56315;-33.902;151.160;2022-09-03T04:44:53;13.10;;;3.42;;
44646;SDS011;56315;-33.902;151.160;2022-09-03T04:47:20;19.75;;;3.33;;
44646;SDS011;56315;-33.902;151.160;2022-09-03T04:49:48;19.02;;;2.85;;
44646;SDS011;56315;-33.902;151.160;2022-09-03T04:52:15;17.95;;;2.65;;
44646;SDS011;56315;-33.902;151.160;2022-09-03T04:54:43;13.35;;;2.03;;
44646;SDS011;56315;-33.902;151.160;2022-09-03T04:57:11;13.35;;;2.17;;
44646;SDS011;56315;-33.902;151.160;2022-09-03T04:59:38;14.25;;;2.50;;
44646;SDS011;56315;-33.902;151.160;2022-09-03T05:02:07;15.45;;;2.15;;
44646;SDS011;56315;-33.902;151.160;2022-09-03T05:04:34;14.88;;;3.10;;
44646;SDS011;56315;-33.902;151.160;2022-09-03T05:07:02;15.98;;;3.05;;
44646;SDS011;56315;-33.902;151.160;2022-09-03T05:09:29;16.13;;;2.65;;
44646;SDS011;56315;-33.902;151.160;2022-09-03T05:11:56;10.07;;;1.98;;
44646;SDS011;56315;-33.902;151.160;2022-09-03T05:14:24;16.02;;;2.63;;
44646;SDS011;56315;-33.902;151.160;2022-09-03T05:16:51;18.90;;;3.17;;
44646;SDS011;56315;-33.902;151.160;2022-09-03T05:19:18;14.18;;;2.97;;
44646;SDS011;56315;-33.902;151.160;2022-09-03T05:21:46;14.88;;;2.33;;
44646;SDS011;56315;-33.902;151.160;2022-09-03T05:24:13;15.50;;;2.70;;
44646;SDS011;56315;-33.902;151.160;2022-09-03T05:26:40;16.88;;;2.60;;
44646;SDS011;56315;-33.902;151.160;2022-09-03T05:29:07;12.82;;;2.45;;
44646;SDS011;56315;-33.902;151.160;2022-09-03T05:31:36;18.83;;;2.90;;
44646;SDS011;56315;-33.902;151.160;2022-09-03T05:34:05;14.00;;;2.83;;
44646;SDS011;56315;-33.902;151.160;2022-09-03T05:36:35;11.70;;;1.80;;
44646;SDS011;56315;-33.902;151.160;2022-09-03T05:39:03;12.30;;;2.70;;
44646;SDS011;56315;-33.902;151.160;2022-09-03T05:41:32;15.25;;;2.72;;
44646;SDS011;56315;-33.902;151.160;2022-09-03T05:44:00;10.63;;;2.00;;
44646;SDS011;56315;-33.902;151.160;2022-09-03T05:46:29;12.77;;;2.38;;
44646;SDS011;56315;-33.902;151.160;2022-09-03T05:48:58;8.07;;;2.00;;
44646;SDS011;56315;-33.902;151.160;2022-09-03T05:51:27;15.40;;;3.92;;
44646;SDS011;56315;-33.902;151.160;2022-09-03T05:53:56;13.88;;;3.28;;
44646;SDS011;56315;-33.902;151.160;2022-09-03T05:56:24;14.52;;;3.28;;
44646;SDS011;56315;-33.902;151.160;2022-09-03T05:58:53;11.38;;;3.08;;
44646;SDS011;56315;-33.902;151.160;2022-09-03T06:01:27;11.10;;;1.58;;
44646;SDS011;56315;-33.902;151.160;2022-09-03T06:03:57;13.60;;;2.30;;
44646;SDS011;56315;-33.902;151.160;2022-09-03T06:06:29;17.23;;;2.17;;
44646;SDS011;56315;-33.902;151.160;2022-09-03T06:08:59;10.32;;;2.20;;
44646;SDS011;56315;-33.902;151.160;2022-09-03T06:11:28;16.20;;;3.20;;
44646;SDS011;56315;-33.902;151.160;2022-09-03T06:14:10;14.27;;;3.80;;
44646;SDS011;56315;-33.902;151.160;2022-09-03T06:16:39;14.98;;;3.00;;
44646;SDS011;56315;-33.902;151.160;2022-09-03T06:19:09;9.50;;;2.00;;
44646;SDS011;56315;-33.902;151.160;2022-09-03T06:21:40;8.75;;;2.47;;
44646;SDS011;56315;-33.902;151.160;2022-09-03T06:24:09;13.23;;;3.13;;
44646;SDS011;56315;-33.902;151.160;2022-09-03T06:26:41;15.93;;;2.95;;
44646;SDS011;56315;-33.902;151.160;2022-09-03T06:29:10;10.73;;;1.85;;
44646;SDS011;56315;-33.902;151.160;2022-09-03T06:31:38;13.25;;;2.10;;
44646;SDS011;56315;-33.902;151.160;2022-09-03T06:34:05;10.55;;;1.75;;
44646;SDS011;56315;-33.902;151.160;2022-09-03T06:36:33;12.85;;;2.00;;
44646;SDS011;56315;-33.902;151.160;2022-09-03T06:39:00;9.32;;;1.65;;
44646;SDS011;56315;-33.902;151.160;2022-09-03T06:41:29;12.43;;;2.20;;
44646;SDS011;56315;-33.902;151.160;2022-09-03T06:44:08;13.30;;;2.30;;
44646;SDS011;56315;-33.902;151.160;2022-09-03T06:46:38;13.10;;;3.00;;
44646;SDS011;56315;-33.902;151.160;2022-09-03T06:49:09;11.30;;;2.33;;
44646;SDS011;56315;-33.902;151.160;2022-09-03T06:51:37;11.25;;;1.92;;
44646;SDS011;56315;-33.902;151.160;2022-09-03T06:54:05;9.15;;;2.08;;
44646;SDS011;56315;-33.902;151.160;2022-09-03T06:56:35;8.50;;;1.92;;
44646;SDS011;56315;-33.902;151.160;2022-09-03T06:59:08;10.90;;;1.90;;
44646;SDS011;56315;-33.902;151.160;2022-09-03T07:01:40;11.20;;;1.52;;
44646;SDS011;56315;-33.902;151.160;2022-09-03T07:04:10;14.38;;;2.90;;
44646;SDS011;56315;-33.902;151.160;2022-09-03T07:06:40;11.75;;;1.88;;
44646;SDS011;56315;-33.902;151.160;2022-09-03T07:09:09;10.77;;;2.20;;
44646;SDS011;56315;-33.902;151.160;2022-09-03T07:11:40;9.35;;;1.55;;
44646;SDS011;56315;-33.902;151.160;2022-09-03T07:14:11;10.07;;;1.58;;
44646;SDS011;56315;-33.902;151.160;2022-09-03T07:16:40;7.40;;;1.30;;
44646;SDS011;56315;-33.902;151.160;2022-09-03T07:19:08;9.35;;;1.95;;
44646;SDS011;56315;-33.902;151.160;2022-09-03T07:21:38;14.32;;;1.90;;
44646;SDS011;56315;-33.902;151.160;2022-09-03T07:24:08;11.45;;;2.17;;
44646;SDS011;56315;-33.902;151.160;2022-09-03T07:26:38;16.30;;;4.97;;
44646;SDS011;56315;-33.902;151.160;2022-09-03T07:29:09;8.25;;;1.70;;
44646;SDS011;56315;-33.902;151.160;2022-09-03T07:31:38;9.38;;;1.63;;
44646;SDS011;56315;-33.902;151.160;2022-09-03T07:34:07;9.13;;;1.40;;
44646;SDS011;56315;-33.902;151.160;2022-09-03T07:36:39;10.32;;;2.42;;
44646;SDS011;56315;-33.902;151.160;2022-09-03T07:46:07;11.68;;;1.90;;
44646;SDS011;56315;-33.902;151.160;2022-09-03T07:48:41;11.23;;;2.15;;
44646;SDS011;56315;-33.902;151.160;2022-09-03T07:51:09;13.57;;;2.08;;
44646;SDS011;56315;-33.902;151.160;2022-09-03T07:53:37;12.63;;;2.00;;
44646;SDS011;56315;-33.902;151.160;2022-09-03T07:56:05;11.82;;;2.35;;
44646;SDS011;56315;-33.902;151.160;2022-09-03T07:58:34;10.98;;;1.52;;
44646;SDS011;56315;-33.902;151.160;2022-09-03T08:01:04;14.82;;;2.03;;
44646;SDS011;56315;-33.902;151.160;2022-09-03T08:03:41;11.77;;;3.05;;
44646;SDS011;56315;-33.902;151.160;2022-09-03T08:06:10;13.05;;;2.67;;
44646;SDS011;56315;-33.902;151.160;2022-09-03T08:08:38;8.68;;;1.85;;
44646;SDS011;56315;-33.902;151.160;2022-09-03T08:11:06;9.75;;;1.85;;
44646;SDS011;56315;-33.902;151.160;2022-09-03T08:13:36;13.38;;;1.95;;
44646;SDS011;56315;-33.902;151.160;2022-09-03T08:16:05;8.82;;;1.90;;
44646;SDS011;56315;-33.902;151.160;2022-09-03T08:18:34;8.88;;;1.55;;
44646;SDS011;56315;-33.902;151.160;2022-09-03T08:21:05;8.45;;;1.45;;
44646;SDS011;56315;-33.902;151.160;2022-09-03T08:23:45;9.13;;;1.30;;
44646;SDS011;56315;-33.902;151.160;2022-09-03T08:26:14;11.00;;;2.17;;
44646;SDS011;56315;-33.902;151.160;2022-09-03T08:28:43;4.60;;;1.23;;
44646;SDS011;56315;-33.902;151.160;2022-09-03T08:31:14;4.53;;;1.20;;
44646;SDS011;56315;-33.902;151.160;2022-09-03T08:33:44;10.13;;;1.00;;
44646;SDS011;56315;-33.902;151.160;2022-09-03T08:36:15;7.03;;;1.10;;
44646;SDS011;56315;-33.902;151.160;2022-09-03T08:38:44;5.65;;;1.35;;
44646;SDS011;56315;-33.902;151.160;2022-09-03T08:46:47;6.47;;;1.85;;
44646;SDS011;56315;-33.902;151.160;2022-09-03T08:50:03;9.63;;;2.42;;
44646;SDS011;56315;-33.902;151.160;2022-09-03T08:52:06;8.48;;;1.75;;
44646;SDS011;56315;-33.902;151.160;2022-09-03T08:55:11;6.05;;;1.80;;
44646;SDS011;56315;-33.902;151.160;2022-09-03T08:58:02;16.40;;;2.88;;
44646;SDS011;56315;-33.902;151.160;2022-09-03T09:00:56;9.18;;;2.03;;
44646;SDS011;56315;-33.902;151.160;2022-09-03T09:09:24;9.40;;;2.63;;
44646;SDS011;56315;-33.902;151.160;2022-09-03T09:15:26;11.23;;;2.45;;
44646;SDS011;56315;-33.902;151.160;2022-09-03T09:21:12;11.82;;;1.83;;
44646;SDS011;56315;-33.902;151.160;2022-09-03T09:23:49;15.38;;;4.15;;
44646;SDS011;56315;-33.902;151.160;2022-09-03T09:26:19;15.77;;;2.80;;
44646;SDS011;56315;-33.902;151.160;2022-09-03T09:29:01;14.13;;;2.38;;
44646;SDS011;56315;-33.902;151.160;2022-09-03T09:31:35;18.83;;;2.42;;
44646;SDS011;56315;-33.902;151.160;2022-09-03T09:34:05;16.08;;;2.60;;
44646;SDS011;56315;-33.902;151.160;2022-09-03T09:36:36;10.32;;;1.65;;
44646;SDS011;56315;-33.902;151.160;2022-09-03T09:39:10;10.93;;;2.00;;
44646;SDS011;56315;-33.902;151.160;2022-09-03T09:41:40;9.55;;;2.50;;
44646;SDS011;56315;-33.902;151.160;2022-09-03T09:44:24;10.93;;;3.38;;
44646;SDS011;56315;-33.902;151.160;2022-09-03T09:47:00;17.40;;;3.50;;
44646;SDS011;56315;-33.902;151.160;2022-09-03T09:49:35;11.18;;;2.55;;
44646;SDS011;56315;-33.902;151.160;2022-09-03T09:52:13;9.93;;;2.13;;
44646;SDS011;56315;-33.902;151.160;2022-09-03T09:54:42;11.82;;;2.83;;
44646;SDS011;56315;-33.902;151.160;2022-09-03T09:57:15;8.93;;;1.70;;
44646;SDS011;56315;-33.902;151.160;2022-09-03T09:59:47;8.77;;;1.65;;
44646;SDS011;56315;-33.902;151.160;2022-09-03T10:04:50;6.13;;;1.33;;
44646;SDS011;56315;-33.902;151.160;2022-09-03T10:07:22;7.18;;;1.30;;
44646;SDS011;56315;-33.902;151.160;2022-09-03T10:12:37;8.43;;;1.45;;
44646;SDS011;56315;-33.902;151.160;2022-09-03T10:26:22;6.72;;;1.40;;
44646;SDS011;56315;-33.902;151.160;2022-09-03T10:39:19;7.53;;;1.40;;
44646;SDS011;56315;-33.902;151.160;2022-09-03T10:42:06;4.35;;;1.30;;
44646;SDS011;56315;-33.902;151.160;2022-09-03T10:55:07;7.25;;;1.10;;
44646;SDS011;56315;-33.902;151.160;2022-09-03T11:00:18;9.27;;;1.60;;
44646;SDS011;56315;-33.902;151.160;2022-09-03T11:05:59;7.53;;;1.80;;
44646;SDS011;56315;-33.902;151.160;2022-09-03T11:13:55;7.53;;;1.73;;
44646;SDS011;56315;-33.902;151.160;2022-09-03T11:16:37;7.57;;;1.20;;
44646;SDS011;56315;-33.902;151.160;2022-09-03T11:19:15;8.98;;;1.52;;
44646;SDS011;56315;-33.902;151.160;2022-09-03T11:21:44;13.18;;;2.25;;
44646;SDS011;56315;-33.902;151.160;2022-09-03T11:24:15;6.25;;;1.20;;
44646;SDS011;56315;-33.902;151.160;2022-09-03T11:26:54;9.13;;;2.15;;
44646;SDS011;56315;-33.902;151.160;2022-09-03T11:29:30;6.30;;;1.05;;
44646;SDS011;56315;-33.902;151.160;2022-09-03T11:32:12;11.52;;;1.90;;
44646;SDS011;56315;-33.902;151.160;2022-09-03T11:34:53;11.43;;;1.95;;
44646;SDS011;56315;-33.902;151.160;2022-09-03T11:37:22;6.93;;;1.42;;
44646;SDS011;56315;-33.902;151.160;2022-09-03T11:47:56;8.40;;;1.58;;
44646;SDS011;56315;-33.902;151.160;2022-09-03T11:50:25;8.95;;;1.75;;
44646;SDS011;56315;-33.902;151.160;2022-09-03T11:58:38;7.55;;;1.48;;
44646;SDS011;56315;-33.902;151.160;2022-09-03T12:01:09;6.28;;;1.48;;
44646;SDS011;56315;-33.902;151.160;2022-09-03T12:03:42;7.28;;;1.42;;
44646;SDS011;56315;-33.902;151.160;2022-09-03T12:17:23;16.25;;;2.97;;
44646;SDS011;56315;-33.902;151.160;2022-09-03T12:20:12;14.85;;;2.53;;
44646;SDS011;56315;-33.902;151.160;2022-09-03T12:22:41;12.02;;;1.70;;
44646;SDS011;56315;-33.902;151.160;2022-09-03T12:25:12;11.35;;;1.88;;
44646;SDS011;56315;-33.902;151.160;2022-09-03T12:27:42;6.97;;;1.00;;
44646;SDS011;56315;-33.902;151.160;2022-09-03T12:30:15;10.60;;;2.00;;
44646;SDS011;56315;-33.902;151.160;2022-09-03T12:32:44;7.15;;;1.52;;
44646;SDS011;56315;-33.902;151.160;2022-09-03T12:35:14;7.03;;;1.25;;
44646;SDS011;56315;-33.902;151.160;2022-09-03T12:37:43;14.35;;;1.55;;
44646;SDS011;56315;-33.902;151.160;2022-09-03T12:40:27;11.35;;;1.65;;
44646;SDS011;56315;-33.902;151.160;2022-09-03T12:43:10;10.82;;;1.88;;
44646;SDS011;56315;-33.902;151.160;2022-09-03T12:45:42;9.60;;;1.40;;
44646;SDS011;56315;-33.902;151.160;2022-09-03T12:48:11;12.50;;;1.50;;
44646;SDS011;56315;-33.902;151.160;2022-09-03T12:50:44;9.32;;;1.80;;
44646;SDS011;56315;-33.902;151.160;2022-09-03T12:53:25;6.18;;;1.45;;
44646;SDS011;56315;-33.902;151.160;2022-09-03T12:55:54;6.57;;;1.67;;
44646;SDS011;56315;-33.902;151.160;2022-09-03T12:58:24;8.70;;;1.63;;
44646;SDS011;56315;-33.902;151.160;2022-09-03T13:01:06;6.25;;;1.17;;
44646;SDS011;56315;-33.902;151.160;2022-09-03T13:03:49;8.55;;;2.05;;
44646;SDS011;56315;-33.902;151.160;2022-09-03T13:06:51;11.27;;;1.80;;
44646;SDS011;56315;-33.902;151.160;2022-09-03T13:09:21;11.95;;;1.40;;
44646;SDS011;56315;-33.902;151.160;2022-09-03T13:11:51;10.27;;;2.33;;
44646;SDS011;56315;-33.902;151.160;2022-09-03T13:14:20;10.13;;;1.98;;
44646;SDS011;56315;-33.902;151.160;2022-09-03T13:30:30;21.13;;;4.00;;
44646;SDS011;56315;-33.902;151.160;2022-09-03T13:33:18;15.23;;;2.78;;
44646;SDS011;56315;-33.902;151.160;2022-09-03T13:43:36;17.80;;;2.47;;
44646;SDS011;56315;-33.902;151.160;2022-09-03T13:46:22;14.77;;;2.95;;
44646;SDS011;56315;-33.902;151.160;2022-09-03T13:48:50;16.30;;;2.50;;
44646;SDS011;56315;-33.902;151.160;2022-09-03T13:52:00;10.30;;;2.67;;
44646;SDS011;56315;-33.902;151.160;2022-09-03T13:54:34;12.43;;;1.92;;
44646;SDS011;56315;-33.902;151.160;2022-09-03T14:03:06;18.08;;;2.30;;
44646;SDS011;56315;-33.902;151.160;2022-09-03T14:11:40;11.32;;;2.47;;
44646;SDS011;56315;-33.902;151.160;2022-09-03T14:22:18;16.45;;;2.97;;
44646;SDS011;56315;-33.902;151.160;2022-09-03T14:25:02;14.98;;;2.40;;
44646;SDS011;56315;-33.902;151.160;2022-09-03T14:27:36;17.63;;;2.65;;
44646;SDS011;56315;-33.902;151.160;2022-09-03T14:30:05;14.80;;;3.63;;
44646;SDS011;56315;-33.902;151.160;2022-09-03T14:35:30;15.77;;;2.42;;
44646;SDS011;56315;-33.902;151.160;2022-09-03T14:41:03;13.30;;;2.75;;
44646;SDS011;56315;-33.902;151.160;2022-09-03T14:43:45;14.55;;;3.15;;
44646;SDS011;56315;-33.902;151.160;2022-09-03T15:11:54;14.07;;;2.83;;
44646;SDS011;56315;-33.902;151.160;2022-09-03T15:14:37;19.23;;;3.90;;
44646;SDS011;56315;-33.902;151.160;2022-09-03T15:17:28;16.50;;;3.28;;
44646;SDS011;56315;-33.902;151.160;2022-09-03T15:20:27;8.65;;;2.53;;
44646;SDS011;56315;-33.902;151.160;2022-09-03T15:31:14;16.70;;;2.53;;
44646;SDS011;56315;-33.902;151.160;2022-09-03T15:33:56;15.43;;;2.67;;
44646;SDS011;56315;-33.902;151.160;2022-09-03T15:36:45;17.08;;;2.85;;
44646;SDS011;56315;-33.902;151.160;2022-09-03T15:39:25;15.38;;;2.97;;
44646;SDS011;56315;-33.902;151.160;2022-09-03T15:42:00;10.95;;;2.63;;
44646;SDS011;56315;-33.902;151.160;2022-09-03T15:44:41;11.20;;;2.72;;
44646;SDS011;56315;-33.902;151.160;2022-09-03T15:47:35;14.18;;;2.90;;
44646;SDS011;56315;-33.902;151.160;2022-09-03T15:53:57;10.98;;;2.60;;
44646;SDS011;56315;-33.902;151.160;2022-09-03T15:56:49;9.40;;;1.88;;
44646;SDS011;56315;-33.902;151.160;2022-09-03T15:59:29;9.20;;;2.80;;
44646;SDS011;56315;-33.902;151.160;2022-09-03T16:10:31;16.70;;;2.92;;
44646;SDS011;56315;-33.902;151.160;2022-09-03T16:16:15;17.40;;;3.35;;
44646;SDS011;56315;-33.902;151.160;2022-09-03T16:18:56;12.73;;;2.13;;
44646;SDS011;56315;-33.902;151.160;2022-09-03T16:21:33;11.43;;;1.30;;
44646;SDS011;56315;-33.902;151.160;2022-09-03T16:24:08;11.07;;;1.85;;
44646;SDS011;56315;-33.902;151.160;2022-09-03T16:27:02;12.10;;;1.83;;
44646;SDS011;56315;-33.902;151.160;2022-09-03T16:29:40;12.18;;;1.60;;
44646;SDS011;56315;-33.902;151.160;2022-09-03T16:38:07;12.52;;;1.13;;
44646;SDS011;56315;-33.902;151.160;2022-09-03T16:41:23;9.95;;;1.45;;
44646;SDS011;56315;-33.902;151.160;2022-09-03T16:43:57;10.88;;;1.70;;
44646;SDS011;56315;-33.902;151.160;2022-09-03T16:54:47;11.80;;;2.45;;
44646;SDS011;56315;-33.902;151.160;2022-09-03T17:00:07;14.63;;;2.25;;
44646;SDS011;56315;-33.902;151.160;2022-09-03T17:19:56;14.30;;;2.20;;
44646;SDS011;56315;-33.902;151.160;2022-09-03T17:26:43;22.63;;;2.75;;
44646;SDS011;56315;-33.902;151.160;2022-09-03T17:28:56;19.73;;;3.00;;
44646;SDS011;56315;-33.902;151.160;2022-09-03T17:34:54;13.77;;;2.63;;
44646;SDS011;56315;-33.902;151.160;2022-09-03T17:43:23;16.83;;;2.50;;
44646;SDS011;56315;-33.902;151.160;2022-09-03T17:49:26;15.38;;;2.67;;
44646;SDS011;56315;-33.902;151.160;2022-09-03T17:52:19;14.85;;;2.08;;
44646;SDS011;56315;-33.902;151.160;2022-09-03T17:55:12;18.65;;;3.45;;
44646;SDS011;56315;-33.902;151.160;2022-09-03T17:57:56;18.83;;;2.13;;
44646;SDS011;56315;-33.902;151.160;2022-09-03T18:03:44;16.60;;;2.50;;
44646;SDS011;56315;-33.902;151.160;2022-09-03T18:09:29;14.80;;;1.95;;
44646;SDS011;56315;-33.902;151.160;2022-09-03T18:15:08;11.02;;;1.92;;
44646;SDS011;56315;-33.902;151.160;2022-09-03T18:18:00;14.18;;;1.75;;
44646;SDS011;56315;-33.902;151.160;2022-09-03T18:20:51;10.70;;;1.30;;
44646;SDS011;56315;-33.902;151.160;2022-09-03T18:26:38;6.82;;;0.88;;
44646;SDS011;56315;-33.902;151.160;2022-09-03T18:29:36;13.07;;;1.80;;
44646;SDS011;56315;-33.902;151.160;2022-09-03T18:32:28;12.57;;;1.30;;
44646;SDS011;56315;-33.902;151.160;2022-09-03T18:35:13;9.57;;;1.63;;
44646;SDS011;56315;-33.902;151.160;2022-09-03T18:38:00;12.82;;;1.65;;
44646;SDS011;56315;-33.902;151.160;2022-09-03T18:50:33;9.45;;;2.13;;
44646;SDS011;56315;-33.902;151.160;2022-09-03T18:56:49;12.95;;;2.17;;
44646;SDS011;56315;-33.902;151.160;2022-09-03T19:02:55;18.60;;;2.28;;
44646;SDS011;56315;-33.902;151.160;2022-09-03T19:06:17;19.38;;;3.13;;
44646;SDS011;56315;-33.902;151.160;2022-09-03T19:09:44;11.85;;;2.00;;
44646;SDS011;56315;-33.902;151.160;2022-09-03T19:15:46;13.85;;;2.58;;
44646;SDS011;56315;-33.902;151.160;2022-09-03T19:22:02;12.32;;;1.40;;
44646;SDS011;56315;-33.902;151.160;2022-09-03T19:24:56;13.98;;;2.13;;
44646;SDS011;56315;-33.902;151.160;2022-09-03T19:27:58;9.95;;;2.10;;
44646;SDS011;56315;-33.902;151.160;2022-09-03T19:34:05;12.63;;;1.38;;
44646;SDS011;56315;-33.902;151.160;2022-09-03T19:37:30;9.38;;;1.63;;
44646;SDS011;56315;-33.902;151.160;2022-09-03T19:52:52;14.00;;;2.25;;
44646;SDS011;56315;-33.902;151.160;2022-09-03T19:55:47;18.77;;;3.63;;
44646;SDS011;56315;-33.902;151.160;2022-09-03T19:58:53;10.73;;;1.52;;
44646;SDS011;56315;-33.902;151.160;2022-09-03T20:01:41;15.75;;;1.98;;
44646;SDS011;56315;-33.902;151.160;2022-09-03T20:04:30;14.95;;;2.15;;
44646;SDS011;56315;-33.902;151.160;2022-09-03T20:07:18;11.27;;;2.13;;
44646;SDS011;56315;-33.902;151.160;2022-09-03T20:10:07;12.55;;;1.75;;
44646;SDS011;56315;-33.902;151.160;2022-09-03T20:33:14;14.07;;;2.72;;
44646;SDS011;56315;-33.902;151.160;2022-09-03T20:41:44;10.52;;;1.80;;
44646;SDS011;56315;-33.902;151.160;2022-09-03T20:44:35;11.88;;;1.63;;
44646;SDS011;56315;-33.902;151.160;2022-09-03T20:50:13;13.90;;;3.05;;
44646;SDS011;56315;-33.902;151.160;2022-09-03T20:55:54;12.60;;;2.42;;
44646;SDS011;56315;-33.902;151.160;2022-09-03T20:58:43;11.45;;;2.42;;
44646;SDS011;56315;-33.902;151.160;2022-09-03T21:04:02;10.57;;;1.52;;
44646;SDS011;56315;-33.902;151.160;2022-09-03T21:06:49;12.43;;;1.83;;
44646;SDS011;56315;-33.902;151.160;2022-09-03T21:12:22;9.18;;;1.60;;
44646;SDS011;56315;-33.902;151.160;2022-09-03T21:14:57;14.82;;;3.20;;
44646;SDS011;56315;-33.902;151.160;2022-09-03T21:18:02;10.85;;;2.33;;